Time;durP1;ratioP1;P1;durP2;ratioP2;P2;SDS_P1;SDS_P2;PMS_P1;PMS_P2;Temp;Humidity;BMP_temperature;BMP_pressure;BME280_temperature;BME280_humidity;BME280_pressure;Samples;Min_cycle;Max_cycle;Signal;HPM_P1;HPM_P2
2023/04/09 00:02:15;;;;;;;41.87;25.27;;;;;;;16.52;51.19;102663.22;5071726;28;20479;-69
2023/04/09 00:04:40;;;;;;;45.73;25.13;;;;;;;16.77;51.15;102673.63;5072220;28;20230;-70
2023/04/09 00:07:06;;;;;;;45.13;26.83;;;;;;;16.93;50.48;102666.53;5070991;28;20077;-70
2023/04/09 00:09:31;;;;;;;45.00;26.50;;;;;;;17.10;49.07;102667.28;5072220;28;20024;-69
2023/04/09 00:11:57;;;;;;;47.67;25.83;;;;;;;17.08;49.50;102668.19;5089484;28;20451;-70
2023/04/09 00:14:22;;;;;;;49.17;26.37;;;;;;;17.06;49.26;102665.56;5071657;28;20020;-68
2023/04/09 00:16:48;;;;;;;44.33;26.47;;;;;;;17.32;48.83;102661.78;5072264;28;20032;-69
2023/04/09 00:19:13;;;;;;;47.07;26.07;;;;;;;17.34;48.03;102662.66;5070679;28;20078;-69
2023/04/09 00:21:39;;;;;;;49.43;27.30;;;;;;;17.25;48.36;102660.09;5090309;28;20520;-71
2023/04/09 00:24:04;;;;;;;49.50;26.60;;;;;;;17.42;48.23;102663.47;5089481;28;20024;-69
2023/04/09 00:26:30;;;;;;;44.93;25.87;;;;;;;17.36;47.74;102658.22;5089529;28;20085;-69
2023/04/09 00:28:55;;;;;;;47.63;26.20;;;;;;;17.25;47.37;102657.44;5071758;28;20028;-69
2023/04/09 00:31:21;;;;;;;55.47;28.57;;;;;;;16.67;49.38;102650.84;5089639;28;20042;-69
2023/04/09 00:33:46;;;;;;;54.77;29.10;;;;;;;16.96;48.85;102653.28;5089193;28;20032;-69
2023/04/09 00:36:11;;;;;;;57.70;28.87;;;;;;;17.04;48.51;102648.81;5089686;28;20112;-69
2023/04/09 00:38:37;;;;;;;55.83;29.00;;;;;;;17.25;47.81;102650.38;5071560;28;20028;-70
2023/04/09 00:41:02;;;;;;;51.03;27.90;;;;;;;16.69;49.02;102649.94;5089132;28;20062;-69
2023/04/09 00:43:28;;;;;;;53.00;27.93;;;;;;;17.07;48.44;102646.16;5071431;28;20020;-69
2023/04/09 00:45:53;;;;;;;55.87;28.30;;;;;;;17.03;48.04;102644.41;5089752;28;20055;-69
2023/04/09 00:48:19;;;;;;;52.27;27.20;;;;;;;17.12;47.97;102644.34;5070584;28;20020;-70
2023/04/09 00:50:45;;;;;;;52.53;26.87;;;;;;;17.05;48.45;102636.47;5089032;28;20101;-69
2023/04/09 00:53:11;;;;;;;54.00;27.73;;;;;;;17.37;47.25;102638.84;5092560;28;20019;-70
2023/04/09 00:55:39;;;;;;;56.03;28.40;;;;;;;16.90;48.46;102637.50;5092155;28;20028;-70
2023/04/09 00:58:05;;;;;;;50.93;27.47;;;;;;;17.48;46.91;102640.50;5091979;28;20055;-69
2023/04/09 01:00:30;;;;;;;56.10;29.10;;;;;;;17.37;46.75;102627.41;5093851;28;20059;-69
2023/04/09 01:02:57;;;;;;;52.80;28.47;;;;;;;17.34;47.04;102633.59;5093018;28;20039;-69
2023/04/09 01:05:53;;;;;;;50.13;26.80;;;;;;;17.37;46.85;102641.47;5093471;28;20358;-69
2023/04/09 01:08:52;;;;;;;51.13;27.20;;;;;;;17.37;46.95;102633.56;5049179;28;20123;-69
2023/04/09 01:11:42;;;;;;;50.77;27.27;;;;;;;17.43;46.76;102632.59;5058501;28;20039;-69
2023/04/09 01:14:11;;;;;;;49.80;26.13;;;;;;;17.23;47.17;102631.03;5093449;28;20031;-70
2023/04/09 01:16:41;;;;;;;55.17;28.37;;;;;;;17.23;47.14;102625.75;5091535;28;20445;-70
2023/04/09 01:19:20;;;;;;;54.13;26.73;;;;;;;17.19;47.67;102634.59;5091465;28;20020;-70
2023/04/09 01:21:46;;;;;;;54.30;27.57;;;;;;;17.33;47.10;102631.84;5092160;28;20115;-70
2023/04/09 01:24:30;;;;;;;55.77;28.03;;;;;;;17.32;46.50;102631.84;5090897;28;20110;-70
2023/04/09 01:27:04;;;;;;;50.63;27.43;;;;;;;17.24;47.00;102631.91;5091984;28;20043;-70
2023/04/09 01:29:33;;;;;;;56.30;29.20;;;;;;;17.09;47.34;102623.25;5092546;28;20020;-69
2023/04/09 01:32:01;;;;;;;55.10;28.77;;;;;;;17.37;46.76;102628.25;5093446;28;20085;-69
2023/04/09 01:34:27;;;;;;;54.37;27.40;;;;;;;16.82;48.68;102623.47;5091706;28;20060;-69
2023/04/09 01:36:56;;;;;;;49.73;26.47;;;;;;;16.89;48.24;102631.34;5091313;28;20024;-69
2023/04/09 01:39:22;;;;;;;56.03;26.47;;;;;;;16.82;47.90;102626.09;5092656;28;20028;-69
2023/04/09 01:41:49;;;;;;;51.77;26.73;;;;;;;16.96;47.69;102633.03;5091793;28;20026;-69
2023/04/09 01:44:16;;;;;;;55.17;27.23;;;;;;;16.67;49.20;102629.72;5091996;28;20513;-69
2023/04/09 01:46:41;;;;;;;55.67;28.83;;;;;;;17.16;48.59;102639.94;5093109;28;20042;-69
2023/04/09 01:49:08;;;;;;;57.93;29.53;;;;;;;17.34;48.79;102632.69;5092534;28;20495;-70
2023/04/09 01:51:35;;;;;;;57.43;28.20;;;;;;;17.45;48.35;102637.00;5074118;28;20020;-67
2023/04/09 01:54:00;;;;;;;60.00;30.03;;;;;;;17.77;48.10;102627.81;5074793;28;20023;-67
2023/04/09 01:56:26;;;;;;;56.43;28.67;;;;;;;18.22;47.29;102637.03;5092199;28;20089;-68
2023/04/09 01:58:51;;;;;;;56.53;30.03;;;;;;;18.44;46.85;102633.16;5074186;28;20107;-67
2023/04/09 02:01:29;;;;;;;54.00;28.63;;;;;;;18.07;47.82;102631.03;5073861;28;20391;-68
2023/04/09 02:04:03;;;;;;;47.67;27.60;;;;;;;18.59;46.89;102631.19;5074144;28;20066;-67
2023/04/09 02:06:44;;;;;;;48.87;26.57;;;;;;;18.13;47.05;102636.25;5073690;28;20035;-68
2023/04/09 02:09:11;;;;;;;48.00;25.60;;;;;;;18.71;46.35;102638.97;5091918;28;20020;-68
2023/04/09 02:11:39;;;;;;;41.60;24.87;;;;;;;18.52;46.59;102638.34;5073975;28;20089;-69
2023/04/09 02:14:07;;;;;;;43.93;25.53;;;;;;;19.16;45.19;102630.28;5073883;28;20428;-69
2023/04/09 02:16:33;;;;;;;43.20;24.20;;;;;;;18.60;46.50;102635.56;5092551;28;20103;-70
2023/04/09 02:19:02;;;;;;;40.50;22.83;;;;;;;18.86;46.06;102642.25;5091637;28;20591;-69
2023/04/09 02:21:28;;;;;;;39.90;23.03;;;;;;;19.04;45.58;102639.34;5091802;28;20024;-70
2023/04/09 02:23:57;;;;;;;46.10;23.43;;;;;;;18.88;45.92;102630.75;5092501;28;20081;-70
2023/04/09 02:26:23;;;;;;;41.13;22.90;;;;;;;19.03;45.76;102626.97;5091190;28;20028;-69
2023/04/09 02:28:48;;;;;;;37.90;21.97;;;;;;;18.41;47.27;102614.69;5073943;28;20031;-69
2023/04/09 02:31:14;;;;;;;38.50;22.17;;;;;;;18.98;45.74;102619.09;5092046;28;20111;-69
2023/04/09 02:33:40;;;;;;;38.43;23.17;;;;;;;19.27;45.06;102615.06;5073223;28;20016;-70
2023/04/09 02:36:05;;;;;;;34.87;22.00;;;;;;;18.90;45.77;102617.50;5073495;28;20476;-69
2023/04/09 02:38:31;;;;;;;37.03;22.70;;;;;;;19.04;46.75;102612.84;5091963;28;20379;-69
2023/04/09 02:40:56;;;;;;;38.97;22.93;;;;;;;18.75;46.23;102618.56;5073064;28;20054;-69
2023/04/09 02:43:22;;;;;;;39.30;22.77;;;;;;;19.37;45.68;102607.84;5091414;28;20024;-70
2023/04/09 02:45:47;;;;;;;38.93;21.97;;;;;;;18.69;46.43;102608.97;5073807;28;20386;-70
2023/04/09 02:48:13;;;;;;;36.67;21.50;;;;;;;18.51;45.69;102609.25;5090581;28;20373;-70
2023/04/09 02:50:38;;;;;;;39.33;22.47;;;;;;;18.09;46.90;102602.78;5091664;28;20059;-69
2023/04/09 02:53:04;;;;;;;36.90;22.43;;;;;;;18.33;46.38;102600.69;5091639;28;20028;-67
2023/04/09 02:55:30;;;;;;;37.50;22.60;;;;;;;18.63;45.86;102603.78;5072752;28;20027;-68
2023/04/09 02:57:55;;;;;;;39.57;23.07;;;;;;;18.05;47.02;102594.91;5091671;28;20017;-67
2023/04/09 03:00:20;;;;;;;39.80;23.10;;;;;;;18.93;44.41;102601.53;5072606;28;20078;-68
2023/04/09 03:02:46;;;;;;;40.57;23.50;;;;;;;18.93;44.77;102602.44;5072619;28;20063;-67
2023/04/09 03:05:11;;;;;;;38.30;23.33;;;;;;;19.16;44.22;102595.81;5072670;28;20111;-68
2023/04/09 03:07:36;;;;;;;37.17;22.70;;;;;;;19.47;43.78;102587.31;5073236;28;20518;-68
2023/04/09 03:10:02;;;;;;;41.57;24.37;;;;;;;19.28;44.01;102598.25;5072665;28;20073;-67
2023/04/09 03:12:27;;;;;;;44.37;25.37;;;;;;;19.31;43.52;102586.72;5091327;28;20387;-67
2023/04/09 03:14:53;;;;;;;42.13;23.87;;;;;;;18.88;44.83;102592.81;5071233;28;20368;-67
2023/04/09 03:17:18;;;;;;;44.17;24.40;;;;;;;18.23;45.65;102585.81;5090753;28;20027;-68
2023/04/09 03:19:43;;;;;;;40.17;22.73;;;;;;;18.62;45.32;102591.41;5091200;28;20059;-67
2023/04/09 03:22:09;;;;;;;41.77;24.33;;;;;;;19.18;44.14;102594.03;5071703;28;20114;-70
2023/04/09 03:24:34;;;;;;;38.83;22.20;;;;;;;19.15;44.19;102587.00;5091156;28;20085;-68
2023/04/09 03:27:00;;;;;;;39.93;24.13;;;;;;;18.36;45.95;102583.88;5091030;28;20024;-68
2023/04/09 03:29:25;;;;;;;43.23;24.43;;;;;;;19.15;43.59;102589.66;5071494;28;20012;-68
2023/04/09 03:31:50;;;;;;;38.50;23.43;;;;;;;19.61;42.87;102579.94;5072829;28;20031;-68
2023/04/09 03:34:16;;;;;;;39.97;24.10;;;;;;;19.94;42.68;102568.69;5072480;28;20077;-67
2023/04/09 03:36:41;;;;;;;39.50;23.27;;;;;;;19.62;42.77;102565.78;5090072;28;20016;-68
2023/04/09 03:39:07;;;;;;;39.73;24.00;;;;;;;19.31;43.53;102571.69;5072227;28;20027;-67
2023/04/09 03:41:32;;;;;;;38.93;22.90;;;;;;;19.47;43.51;102566.09;5072476;28;20035;-68
2023/04/09 03:43:57;;;;;;;42.50;23.83;;;;;;;19.42;43.24;102562.66;5089902;28;20020;-69
2023/04/09 03:46:23;;;;;;;38.70;23.23;;;;;;;19.28;43.53;102565.56;5072297;28;20216;-67
2023/04/09 03:48:49;;;;;;;36.47;22.53;;;;;;;19.04;44.52;102566.91;5090354;28;20031;-67
2023/04/09 03:51:15;;;;;;;38.27;22.47;;;;;;;19.29;44.47;102570.00;5071227;28;20028;-68
2023/04/09 03:53:41;;;;;;;35.57;22.37;;;;;;;18.50;45.24;102563.34;5072253;28;20016;-68
2023/04/09 03:56:07;;;;;;;38.60;22.93;;;;;;;19.17;44.48;102557.81;5071860;28;20082;-68
2023/04/09 03:58:33;;;;;;;35.00;21.90;;;;;;;19.44;43.35;102556.41;5089561;28;20035;-67
2023/04/09 04:00:59;;;;;;;40.43;23.03;;;;;;;19.54;43.25;102561.53;5090864;28;20032;-68
2023/04/09 04:03:24;;;;;;;41.70;23.43;;;;;;;19.12;44.10;102560.56;5071635;28;20038;-68
2023/04/09 04:05:50;;;;;;;41.17;23.93;;;;;;;19.65;43.10;102559.53;5089536;28;20447;-68
2023/04/09 04:08:15;;;;;;;37.07;22.47;;;;;;;19.87;42.73;102564.44;5089869;28;20019;-67
2023/04/09 04:10:40;;;;;;;40.23;23.47;;;;;;;19.56;43.57;102554.41;5071839;28;20369;-68
2023/04/09 04:13:09;;;;;;;37.50;22.30;;;;;;;19.38;43.53;102553.88;5089161;28;20036;-68
2023/04/09 04:15:41;;;;;;;37.00;21.80;;;;;;;19.15;44.13;102562.25;5071881;28;20089;-68
2023/04/09 04:18:07;;;;;;;38.30;21.90;;;;;;;19.77;42.76;102563.69;5088835;28;20024;-68
2023/04/09 04:20:33;;;;;;;37.77;22.73;;;;;;;20.10;41.98;102562.13;5072092;28;20042;-68
2023/04/09 04:22:58;;;;;;;38.90;22.77;;;;;;;19.33;42.83;102553.13;5090005;28;20931;-67
2023/04/09 04:25:24;;;;;;;36.70;22.70;;;;;;;19.61;43.17;102558.72;5070673;28;20028;-68
2023/04/09 04:27:49;;;;;;;37.87;21.97;;;;;;;19.36;42.94;102550.41;5090403;28;20085;-69
2023/04/09 04:30:14;;;;;;;36.43;22.03;;;;;;;19.56;43.03;102544.66;5071513;28;20379;-69
2023/04/09 04:32:40;;;;;;;38.60;22.60;;;;;;;19.81;42.58;102542.41;5071035;28;20433;-69
2023/04/09 04:35:05;;;;;;;37.20;21.90;;;;;;;19.90;42.03;102543.13;5089456;28;20143;-69
2023/04/09 04:37:31;;;;;;;38.10;22.10;;;;;;;19.66;42.96;102550.69;5089969;28;20516;-70
2023/04/09 04:39:56;;;;;;;38.50;21.67;;;;;;;19.91;42.29;102544.88;5070977;28;20023;-69
2023/04/09 04:42:22;;;;;;;39.37;21.37;;;;;;;19.81;42.25;102549.50;5071317;28;20054;-69
2023/04/09 04:44:47;;;;;;;34.33;21.03;;;;;;;20.08;41.93;102552.44;5089738;28;20077;-69
2023/04/09 04:47:12;;;;;;;38.37;22.70;;;;;;;20.06;41.75;102552.50;5070463;28;20032;-68
2023/04/09 04:49:38;;;;;;;37.60;21.53;;;;;;;19.89;42.01;102547.53;5077556;28;20122;-68
2023/04/09 04:52:06;;;;;;;36.77;21.50;;;;;;;20.07;41.86;102556.91;5089740;28;20384;-67
2023/04/09 04:54:32;;;;;;;38.73;21.87;;;;;;;20.23;41.66;102556.53;5088993;28;20479;-68
2023/04/09 04:56:58;;;;;;;38.33;21.60;;;;;;;19.60;42.82;102561.41;5088454;28;20020;-68
2023/04/09 04:59:23;;;;;;;37.97;21.53;;;;;;;19.63;42.26;102561.34;5089375;28;20337;-68
2023/04/09 05:01:48;;;;;;;34.67;21.17;;;;;;;19.92;42.05;102567.84;5087665;28;20115;-69
2023/04/09 05:04:14;;;;;;;37.03;21.73;;;;;;;19.67;42.06;102563.91;5087997;28;20480;-69
2023/04/09 05:06:39;;;;;;;35.77;21.03;;;;;;;19.79;42.41;102569.84;5089896;28;20471;-69
2023/04/09 05:09:05;;;;;;;39.03;22.27;;;;;;;19.34;42.60;102570.75;5087213;28;20605;-68
2023/04/09 05:11:30;;;;;;;39.70;21.83;;;;;;;19.26;43.28;102572.66;5089531;28;20020;-68
2023/04/09 05:13:55;;;;;;;41.97;23.17;;;;;;;19.58;42.60;102563.22;5089457;28;20064;-68
2023/04/09 05:16:21;;;;;;;39.33;22.57;;;;;;;19.53;42.68;102565.97;5088524;28;20051;-68
2023/04/09 05:18:46;;;;;;;39.33;22.60;;;;;;;18.53;44.61;102578.31;5088087;28;20365;-68
2023/04/09 05:21:12;;;;;;;41.03;22.13;;;;;;;18.27;44.98;102579.59;5087468;28;20020;-68
2023/04/09 05:23:37;;;;;;;41.87;22.43;;;;;;;18.99;43.05;102580.25;5088840;28;20024;-69
2023/04/09 05:26:06;;;;;;;39.03;21.77;;;;;;;19.03;43.27;102576.63;5089465;28;20031;-68
2023/04/09 05:28:31;;;;;;;40.17;22.07;;;;;;;19.83;41.96;102572.44;5088792;28;20027;-69
2023/04/09 05:30:57;;;;;;;37.97;22.57;;;;;;;19.58;42.11;102571.19;5088029;28;20020;-68
2023/04/09 05:33:22;;;;;;;39.43;23.00;;;;;;;19.71;41.82;102569.16;5089267;28;20028;-68
2023/04/09 05:35:47;;;;;;;42.07;23.07;;;;;;;19.19;43.48;102573.69;5088540;28;20169;-68
2023/04/09 05:38:13;;;;;;;39.77;23.27;;;;;;;19.36;43.07;102568.97;5090218;28;20020;-68
2023/04/09 05:40:38;;;;;;;40.17;23.83;;;;;;;19.62;42.28;102572.88;5091792;28;20035;-68
2023/04/09 05:43:04;;;;;;;41.87;23.60;;;;;;;19.47;42.93;102574.91;5091921;28;20020;-68
2023/04/09 05:45:30;;;;;;;39.77;23.20;;;;;;;19.68;42.77;102578.03;5093139;28;20483;-69
2023/04/09 05:47:56;;;;;;;42.50;23.63;;;;;;;19.98;41.53;102573.03;5091811;28;20051;-67
2023/04/09 05:50:21;;;;;;;41.77;23.43;;;;;;;19.60;42.61;102572.00;5090204;28;20040;-69
2023/04/09 05:52:47;;;;;;;42.30;23.37;;;;;;;19.27;43.25;102577.94;5091350;28;20114;-68
2023/04/09 05:55:12;;;;;;;39.93;22.80;;;;;;;19.06;43.63;102576.56;5090867;28;20031;-68
2023/04/09 05:57:37;;;;;;;39.93;22.70;;;;;;;18.97;44.08;102582.03;5092115;28;20090;-68
2023/04/09 06:00:07;;;;;;;43.03;23.97;;;;;;;18.96;44.19;102585.59;5092594;28;20035;-68
2023/04/09 06:02:32;;;;;;;44.47;24.13;;;;;;;19.04;43.92;102589.00;5092605;28;20020;-68
2023/04/09 06:04:57;;;;;;;39.20;22.43;;;;;;;19.13;43.42;102594.09;5090735;28;20031;-68
2023/04/09 06:07:23;;;;;;;44.47;23.80;;;;;;;19.09;44.09;102587.09;5091089;28;20345;-69
2023/04/09 06:09:48;;;;;;;43.80;23.37;;;;;;;19.44;42.76;102584.69;5091201;28;20027;-68
2023/04/09 06:12:14;;;;;;;40.77;22.60;;;;;;;19.91;42.22;102582.03;5090132;28;20457;-68
2023/04/09 06:14:40;;;;;;;38.93;21.87;;;;;;;19.67;42.58;102581.59;5092572;28;20024;-68
2023/04/09 06:17:05;;;;;;;41.83;23.70;;;;;;;19.68;42.91;102586.00;5090298;28;20028;-68
2023/04/09 06:19:31;;;;;;;39.13;22.67;;;;;;;19.96;42.20;102575.72;5091705;28;20028;-67
2023/04/09 06:21:56;;;;;;;42.00;23.53;;;;;;;19.23;43.55;102580.69;5090822;28;20034;-68
2023/04/09 06:24:22;;;;;;;41.07;23.43;;;;;;;19.98;42.41;102573.03;5092162;28;20020;-68
2023/04/09 06:26:47;;;;;;;43.90;24.07;;;;;;;19.37;43.41;102588.38;5091642;28;20027;-69
2023/04/09 06:29:13;;;;;;;50.43;26.93;;;;;;;19.33;43.20;102592.88;5091872;28;20020;-69
2023/04/09 06:31:38;;;;;;;46.00;23.27;;;;;;;19.70;42.66;102578.91;5090200;28;20035;-69
2023/04/09 06:34:04;;;;;;;45.97;24.40;;;;;;;20.00;41.80;102592.41;5090585;28;20024;-68
2023/04/09 06:36:29;;;;;;;50.23;24.47;;;;;;;20.05;41.45;102587.88;5091842;28;20020;-68
2023/04/09 06:38:55;;;;;;;48.87;23.77;;;;;;;20.16;41.90;102588.50;5091333;28;20035;-69
2023/04/09 06:41:21;;;;;;;46.77;25.10;;;;;;;20.13;41.86;102593.91;5090044;28;20384;-68
2023/04/09 06:43:47;;;;;;;49.93;26.07;;;;;;;19.87;42.51;102601.56;5090367;28;20028;-69
2023/04/09 06:46:16;;;;;;;48.63;24.47;;;;;;;20.15;41.63;102599.19;5089456;28;20027;-69
2023/04/09 06:48:43;;;;;;;56.60;27.30;;;;;;;19.20;43.59;102599.31;5091372;28;20024;-67
2023/04/09 06:51:09;;;;;;;50.63;26.47;;;;;;;19.64;42.94;102590.47;5091287;28;20780;-69
2023/04/09 06:53:34;;;;;;;50.33;25.67;;;;;;;20.17;41.59;102598.22;5090675;28;20039;-68
2023/04/09 06:56:00;;;;;;;56.87;27.83;;;;;;;19.83;42.05;102596.31;5073275;28;20051;-68
2023/04/09 06:58:25;;;;;;;63.30;28.83;;;;;;;19.91;41.95;102596.16;5072762;28;20074;-68
2023/04/09 07:00:51;;;;;;;57.30;27.70;;;;;;;20.07;41.88;102588.75;5072418;28;20031;-68
2023/04/09 07:03:16;;;;;;;59.10;28.53;;;;;;;20.05;41.76;102587.88;5072867;28;20035;-68
2023/04/09 07:05:41;;;;;;;66.30;29.80;;;;;;;19.77;42.78;102590.22;5073396;28;20507;-68
2023/04/09 07:08:07;;;;;;;73.03;31.50;;;;;;;19.77;42.85;102596.41;5090199;28;20388;-68
2023/04/09 07:10:32;;;;;;;68.07;30.03;;;;;;;19.04;43.70;102602.25;5073175;28;20073;-67
2023/04/09 07:12:57;;;;;;;67.23;30.80;;;;;;;18.98;44.09;102599.69;5091214;28;20023;-69
2023/04/09 07:15:23;;;;;;;69.10;31.80;;;;;;;19.44;43.04;102588.25;5071640;28;20059;-70
2023/04/09 07:17:48;;;;;;;72.33;32.07;;;;;;;20.10;42.06;102593.97;5072964;28;20438;-70
2023/04/09 07:20:14;;;;;;;73.77;32.97;;;;;;;19.97;42.14;102592.50;5072216;28;20111;-69
2023/04/09 07:22:40;;;;;;;75.10;33.70;;;;;;;20.10;41.81;102593.97;5071929;28;20441;-69
2023/04/09 07:25:06;;;;;;;74.50;33.00;;;;;;;19.76;41.93;102599.97;5090681;28;20024;-70
2023/04/09 07:27:32;;;;;;;78.27;35.40;;;;;;;19.54;42.49;102598.69;5090888;28;20395;-69
2023/04/09 07:29:58;;;;;;;78.90;35.47;;;;;;;19.63;42.58;102598.47;5072139;28;20070;-70
2023/04/09 07:32:25;;;;;;;75.87;33.67;;;;;;;19.55;42.14;102596.00;5072035;28;20138;-70
2023/04/09 07:34:51;;;;;;;78.17;34.63;;;;;;;19.91;41.58;102595.28;5091013;28;20467;-70
2023/04/09 07:37:17;;;;;;;76.83;34.57;;;;;;;19.77;41.39;102590.22;5071305;28;20048;-69
2023/04/09 07:39:42;;;;;;;82.67;36.53;;;;;;;19.19;43.27;102602.84;5090816;28;20067;-70
2023/04/09 07:42:08;;;;;;;85.40;37.83;;;;;;;19.67;41.64;102586.88;5089449;28;20026;-70
2023/04/09 07:44:35;;;;;;;72.40;34.27;;;;;;;20.22;41.16;102592.81;5091283;28;20348;-69
2023/04/09 07:47:01;;;;;;;78.70;36.23;;;;;;;19.90;41.18;102594.41;5072585;28;20023;-69
2023/04/09 07:49:26;;;;;;;77.20;35.80;;;;;;;20.06;40.88;102587.00;5089181;28;20054;-69
2023/04/09 07:51:52;;;;;;;82.73;38.17;;;;;;;20.17;41.24;102590.28;5090757;28;20024;-69
2023/04/09 07:54:19;;;;;;;77.57;34.47;;;;;;;19.32;42.46;102593.78;5089657;28;20028;-69
2023/04/09 07:56:45;;;;;;;74.17;33.60;;;;;;;19.25;41.96;102605.41;5071274;28;20032;-70
2023/04/09 07:59:10;;;;;;;81.67;36.57;;;;;;;19.79;41.30;102599.03;5089720;28;20020;-69
2023/04/09 08:01:36;;;;;;;80.10;37.23;;;;;;;19.53;41.98;102596.91;5089843;28;20499;-70
2023/04/09 08:04:01;;;;;;;73.03;35.23;;;;;;;19.77;41.70;102595.53;5089619;28;20055;-70
2023/04/09 08:06:27;;;;;;;80.63;36.00;;;;;;;19.96;41.35;102604.00;5071398;28;20019;-69
2023/04/09 08:08:52;;;;;;;77.80;35.03;;;;;;;19.40;41.37;102602.47;5071972;28;20012;-69
2023/04/09 08:11:23;;;;;;;77.87;36.87;;;;;;;19.73;41.47;102593.84;5089022;28;20020;-70
2023/04/09 08:13:52;;;;;;;69.43;34.27;;;;;;;20.05;40.80;102595.00;5090056;28;20031;-70
2023/04/09 08:16:18;;;;;;;74.63;33.97;;;;;;;20.20;40.13;102594.66;5071410;28;20117;-69
2023/04/09 08:18:43;;;;;;;70.20;32.67;;;;;;;20.04;40.59;102590.59;5089205;28;20020;-69
2023/04/09 08:21:08;;;;;;;72.83;34.77;;;;;;;19.54;41.46;102591.59;5089411;28;20040;-70
2023/04/09 08:23:34;;;;;;;71.30;35.17;;;;;;;19.37;41.88;102594.56;5071747;28;20119;-70
2023/04/09 08:25:59;;;;;;;74.37;33.47;;;;;;;19.60;41.72;102598.53;5071032;28;20464;-70
2023/04/09 08:28:25;;;;;;;73.27;34.10;;;;;;;19.08;41.92;102601.28;5089494;28;20054;-69
2023/04/09 08:30:50;;;;;;;76.40;35.60;;;;;;;19.47;41.58;102593.47;5089838;28;20435;-70
2023/04/09 08:33:16;;;;;;;73.97;34.80;;;;;;;19.66;41.17;102598.44;5088666;28;20076;-70
2023/04/09 08:35:42;;;;;;;76.53;35.90;;;;;;;18.35;44.51;102598.88;5089836;28;20031;-69
2023/04/09 08:38:07;;;;;;;77.57;38.10;;;;;;;18.51;44.48;102607.47;5089583;28;20545;-70
2023/04/09 08:40:36;;;;;;;76.60;38.00;;;;;;;19.48;42.26;102608.50;5089003;28;20016;-69
2023/04/09 08:43:06;;;;;;;76.47;36.87;;;;;;;19.17;42.53;102609.97;5089812;28;20085;-69
2023/04/09 08:45:31;;;;;;;79.73;38.33;;;;;;;19.68;41.61;102609.88;5070674;28;20042;-69
2023/04/09 08:47:58;;;;;;;77.87;37.10;;;;;;;19.60;41.40;102615.31;5071583;28;20035;-69
2023/04/09 08:50:26;;;;;;;75.57;37.33;;;;;;;19.41;42.27;102612.16;5089344;28;20204;-69
2023/04/09 08:52:53;;;;;;;75.67;38.33;;;;;;;18.79;43.27;102615.88;5070641;28;20119;-69
2023/04/09 08:55:18;;;;;;;76.53;39.13;;;;;;;19.83;40.98;102606.91;5089191;28;20020;-70
2023/04/09 08:57:44;;;;;;;74.80;39.50;;;;;;;19.31;42.10;102615.88;5089479;28;20458;-70
2023/04/09 09:00:10;;;;;;;70.57;36.53;;;;;;;19.83;41.04;102611.38;5088204;28;20031;-70
2023/04/09 09:02:35;;;;;;;74.27;36.40;;;;;;;19.77;40.26;102603.47;5071435;28;20442;-70
2023/04/09 09:05:01;;;;;;;73.60;37.33;;;;;;;19.82;41.22;102605.19;5071298;28;20048;-70
2023/04/09 09:07:30;;;;;;;72.50;37.40;;;;;;;20.30;40.19;102603.25;5088275;28;20028;-70
2023/04/09 09:09:58;;;;;;;82.17;37.50;;;;;;;18.90;42.53;102612.19;5071283;28;20023;-69
2023/04/09 09:12:40;;;;;;;77.80;37.73;;;;;;;19.97;40.47;102611.06;5072479;28;20034;-70
2023/04/09 09:15:29;;;;;;;75.50;36.70;;;;;;;20.40;39.94;102607.47;5092413;28;20399;-69
2023/04/09 09:17:57;;;;;;;77.60;37.63;;;;;;;19.85;40.01;102608.69;5093555;28;20059;-69
2023/04/09 09:20:24;;;;;;;73.90;35.93;;;;;;;20.91;38.29;102608.03;5092793;28;20020;-69
2023/04/09 09:22:51;;;;;;;77.65;38.22;;;;;;;20.26;39.27;102610.41;5074675;28;20121;-69
2023/04/09 09:25:17;;;;;;;75.32;36.38;;;;;;;20.11;39.92;102606.34;5092807;28;20031;-69
2023/04/09 09:27:42;;;;;;;74.22;36.70;;;;;;;20.14;39.23;102610.69;5074187;28;20035;-69
2023/04/09 09:30:19;;;;;;;68.72;34.58;;;;;;;19.61;40.38;102608.25;5074496;28;20051;-70
2023/04/09 09:32:44;;;;;;;75.53;35.85;;;;;;;21.02;38.16;102596.22;5075221;28;20036;-69
2023/04/09 09:35:10;;;;;;;69.38;35.30;;;;;;;20.58;38.53;102605.25;5073306;28;20093;-70
2023/04/09 09:37:35;;;;;;;72.80;35.70;;;;;;;20.05;39.43;102598.50;5074853;28;20024;-69
2023/04/09 09:40:00;;;;;;;67.75;34.90;;;;;;;20.08;39.53;102595.78;5074774;28;20115;-70
2023/04/09 09:42:26;;;;;;;72.85;35.92;;;;;;;19.68;40.10;102586.00;5073674;28;20032;-69
2023/04/09 09:44:53;;;;;;;69.35;34.63;;;;;;;20.12;39.99;102585.97;5074772;28;20024;-69
2023/04/09 09:47:19;;;;;;;72.22;35.20;;;;;;;20.55;38.98;102579.66;5092386;28;20089;-69
2023/04/09 09:49:47;;;;;;;65.90;33.70;;;;;;;21.25;37.88;102580.56;5080942;28;20396;-69
2023/04/09 09:52:12;;;;;;;67.50;35.03;;;;;;;20.38;38.91;102573.88;5091035;28;20059;-70
2023/04/09 09:54:42;;;;;;;68.63;36.20;;;;;;;20.96;38.12;102574.25;5092940;28;20440;-70
2023/04/09 09:57:12;;;;;;;66.38;35.83;;;;;;;21.23;38.35;102572.63;5090247;28;20038;-69
2023/04/09 09:59:42;;;;;;;64.80;34.15;;;;;;;22.23;37.13;102570.63;5091375;28;20028;-70
2023/04/09 10:02:18;;;;;;;67.85;35.50;;;;;;;22.41;35.34;102567.41;5092292;28;20030;-69
2023/04/09 10:04:43;;;;;;;62.33;33.20;;;;;;;22.63;35.81;102553.38;5091974;28;20028;-70
2023/04/09 10:07:09;;;;;;;62.83;32.53;;;;;;;23.49;34.26;102550.34;5090811;28;20032;-69
2023/04/09 10:09:39;;;;;;;62.58;32.65;;;;;;;22.32;35.51;102554.34;5092698;28;20475;-70
2023/04/09 10:12:08;;;;;;;57.72;31.60;;;;;;;23.03;33.83;102552.00;5092236;28;20016;-70
2023/04/09 10:14:34;;;;;;;51.88;28.92;;;;;;;23.09;33.55;102545.56;5090863;28;20089;-69
2023/04/09 10:17:02;;;;;;;60.47;32.33;;;;;;;22.24;35.85;102545.72;5090427;28;20028;-71
2023/04/09 10:19:29;;;;;;;52.45;30.02;;;;;;;22.77;35.73;102551.09;5092018;28;20031;-70
2023/04/09 10:22:12;;;;;;;56.40;28.77;;;;;;;22.54;35.48;102543.88;5090916;28;20055;-69
2023/04/09 10:24:38;;;;;;;52.25;28.92;;;;;;;22.08;36.70;102535.59;5090762;28;20043;-70
2023/04/09 10:27:15;;;;;;;49.88;28.33;;;;;;;23.19;35.25;102534.53;5090809;28;20032;-69
2023/04/09 10:29:46;;;;;;;52.25;27.73;;;;;;;22.29;35.77;102533.16;5090995;28;20032;-70
2023/04/09 10:32:19;;;;;;;54.28;28.73;;;;;;;20.77;37.46;102534.88;5091117;28;20016;-70
2023/04/09 10:34:45;;;;;;;54.00;29.88;;;;;;;22.15;36.28;102528.28;5090850;28;20027;-69
2023/04/09 10:37:28;;;;;;;49.65;29.15;;;;;;;22.25;36.35;102532.38;5090317;28;20027;-69
2023/04/09 10:39:55;;;;;;;45.60;27.50;;;;;;;23.19;35.13;102526.53;5091464;28;20032;-70
2023/04/09 10:42:34;;;;;;;53.10;27.83;;;;;;;23.86;34.13;102516.91;5089983;28;20047;-70
2023/04/09 10:45:13;;;;;;;47.78;27.77;;;;;;;24.09;32.95;102512.44;5090968;28;20042;-70
2023/04/09 10:47:41;;;;;;;49.10;27.10;;;;;;;24.62;32.92;102518.31;5091855;28;20038;-70
2023/04/09 10:50:41;;;;;;;45.47;26.63;;;;;;;24.85;31.37;102512.84;5091220;28;20101;-70
2023/04/09 10:53:19;;;;;;;45.35;27.23;;;;;;;24.97;31.73;102505.22;5019382;28;20043;-70
2023/04/09 10:55:49;;;;;;;50.85;28.65;;;;;;;23.55;33.25;102501.22;5091661;28;20031;-70
2023/04/09 10:58:15;;;;;;;45.00;28.23;;;;;;;25.06;31.80;102502.13;5091055;28;20032;-70
2023/04/09 11:00:42;;;;;;;46.08;27.30;;;;;;;24.79;32.58;102502.41;5090948;28;20490;-69
2023/04/09 11:03:08;;;;;;;44.97;28.35;;;;;;;25.16;31.63;102492.75;5072826;28;20020;-70
2023/04/09 11:05:37;;;;;;;46.05;27.63;;;;;;;25.69;31.34;102493.88;5073190;28;20028;-69
2023/04/09 11:08:12;;;;;;;44.95;27.40;;;;;;;25.23;31.09;102494.19;5072616;28;20461;-70
2023/04/09 11:10:38;;;;;;;45.97;28.30;;;;;;;24.48;32.58;102490.34;5091361;28;20102;-70